.
WxDataArchive / Data Records for 2015-05-03
2015-05-02 May 2015 2015-05-04

Data Records for Sunday, 03 May 2015

Time	Temp	Chill	HIndex	Humid	Dewpt	 Wind 	HiWind	WindDir	Rain 	Barom
-----	----	-----	------	-----	-----	------	------	-------	-----	-----
00:00	54.2	54.2	54.2	67	43.5	0	0	---	0.00	29.995 
00:05	54.1	54.1	54.1	68	43.8	0	0	---	0.00	29.995 
00:10	54.1	54.1	54.1	69	44.2	0	0	---	0.00	29.995 
00:15	54.1	54.1	54.1	69	44.2	0	0	---	0.00	29.993 
00:20	53.9	53.9	53.9	69	44.0	0	0	---	0.00	29.993 
00:25	53.8	53.8	53.8	69	43.9	0	0	---	0.00	29.993 
00:30	53.6	53.6	53.6	69	43.7	0	0	---	0.00	29.991 
00:35	53.5	53.5	53.5	69	43.6	0	0	---	0.00	29.991 
00:40	53.3	53.3	53.3	70	43.8	0	0	---	0.00	29.991 
00:45	53.3	53.3	53.3	69	43.4	0	0	---	0.00	29.990 
00:50	53.2	53.2	53.2	70	43.7	0	0	---	0.00	29.990 
00:55	53.1	53.1	53.1	70	43.6	0	0	---	0.00	29.990 
01:00	53.1	53.1	53.1	70	43.6	0	0	---	0.00	29.995 
01:05	53.1	53.1	53.1	70	43.6	0	0	---	0.00	29.995 
01:10	52.9	52.9	52.9	70	43.4	0	0	---	0.00	29.995 
01:15	52.8	52.8	52.8	70	43.3	0	0	---	0.00	29.994 
01:20	52.8	52.8	52.8	70	43.3	0	0	---	0.00	29.994 
01:25	52.6	52.6	52.6	71	43.5	0	0	---	0.00	29.994 
01:30	52.5	52.5	52.5	71	43.4	0	0	---	0.00	29.995 
01:35	52.3	52.3	52.3	72	43.5	0	0	---	0.00	29.995 
01:40	52.3	52.3	52.3	72	43.5	0	0	---	0.00	29.995 
01:45	52.2	52.2	52.2	72	43.4	0	0	---	0.00	29.996 
01:50	52.2	52.2	52.2	72	43.4	0	0	---	0.00	29.996 
01:55	52.3	52.3	52.3	71	43.2	0	0	---	0.00	29.996 
02:00	52.5	52.5	52.5	71	43.4	0	0	---	0.00	29.991 
02:05	52.8	52.8	52.8	71	43.7	0	0	---	0.00	29.991 
02:10	52.9	52.9	52.9	70	43.4	0	0	---	0.00	29.991 
02:15	53.1	53.1	53.1	70	43.6	0	0	---	0.00	29.991 
02:20	53.2	53.2	53.2	69	43.3	0	0	---	0.00	29.991 
02:25	53.2	53.2	53.2	69	43.3	0	0	---	0.00	29.991 
02:30	53.2	53.2	53.2	69	43.3	0	0	---	0.00	29.992 
02:35	53.2	53.2	53.2	69	43.3	0	0	---	0.00	29.992 
02:40	53.1	53.1	53.1	69	43.2	0	0	---	0.00	29.992 
02:45	52.9	52.9	52.9	69	43.0	0	0	---	0.00	29.990 
02:50	52.8	52.8	52.8	69	42.9	0	0	---	0.00	29.990 
02:55	52.6	52.6	52.6	69	42.7	0	0	---	0.00	29.990 
03:00	52.5	52.5	52.5	70	43.0	0	0	---	0.00	29.991 
03:05	52.5	52.5	52.5	70	43.0	0	0	---	0.00	29.991 
03:10	52.3	52.3	52.3	71	43.2	0	0	---	0.00	29.991 
03:15	52.2	52.2	52.2	71	43.1	0	0	---	0.00	29.994 
03:20	52.0	52.0	52.0	71	42.9	0	0	---	0.00	29.994 
03:25	51.9	51.9	51.9	72	43.2	0	0	---	0.00	29.994 
03:30	51.9	51.9	51.9	72	43.2	0	0	---	0.00	29.995 
03:35	51.7	51.7	51.7	72	43.0	0	0	---	0.00	29.995 
03:40	51.6	51.6	51.6	73	43.2	0	0	---	0.00	29.995 
03:45	51.4	51.4	51.4	73	43.0	0	0	---	0.00	30.000 
03:50	51.4	51.4	51.4	73	43.0	0	0	---	0.00	30.000 
03:55	51.3	51.3	51.3	74	43.3	0	0	---	0.00	30.000 
04:00	51.1	51.1	51.1	74	43.1	0	0	---	0.00	29.999 
04:05	51.1	51.1	51.1	74	43.1	0	0	---	0.00	29.999 
04:10	51.0	51.0	51.0	74	43.0	0	0	---	0.00	29.999 
04:15	50.8	50.8	50.8	75	43.2	0	0	---	0.00	29.999 
04:20	50.7	50.7	50.7	75	43.1	0	0	---	0.00	29.999 
04:25	50.5	50.5	50.5	75	42.9	0	0	---	0.00	29.999 
04:30	50.4	50.4	50.4	75	42.8	0	0	---	0.00	30.001 
04:35	50.2	50.2	50.2	76	42.9	0	0	---	0.00	30.001 
04:40	50.1	50.1	50.1	76	42.8	0	0	---	0.00	30.001 
04:45	49.9	49.9	49.9	76	42.6	0	0	---	0.00	30.002 
04:50	49.8	49.8	49.8	77	42.9	0	0	---	0.00	30.002 
04:55	49.8	49.8	49.8	77	42.9	0	0	---	0.00	30.002 
05:00	49.6	49.6	49.6	77	42.7	0	0	---	0.00	30.003 
05:05	49.5	49.5	49.5	78	42.9	0	0	---	0.00	30.003 
05:10	49.4	49.4	49.4	78	42.8	0	0	---	0.00	30.003 
05:15	49.2	49.2	49.2	78	42.6	0	0	---	0.00	30.003 
05:20	49.1	49.1	49.1	78	42.5	0	0	---	0.00	30.003 
05:25	49.1	49.1	49.1	78	42.5	0	0	---	0.00	30.003 
05:30	48.9	48.9	48.9	79	42.7	0	0	---	0.00	30.003 
05:35	48.9	48.9	48.9	79	42.7	0	0	---	0.00	30.003 
05:40	48.8	48.8	48.8	80	42.9	0	0	---	0.00	30.003 
05:45	48.8	48.8	48.8	80	42.9	0	0	---	0.00	30.002 
05:50	48.6	48.6	48.6	81	43.0	0	0	---	0.00	30.002 
05:55	48.6	48.6	48.6	81	43.0	0	0	---	0.00	30.002 
06:00	48.5	48.5	48.5	81	42.9	0	0	---	0.00	30.003 
06:05	48.3	48.3	48.3	81	42.7	0	0	---	0.00	30.003 
06:10	48.3	48.3	48.3	82	43.1	0	0	---	0.00	30.003 
06:15	48.2	48.2	48.2	82	43.0	0	0	---	0.00	30.011 
06:20	48.0	48.0	48.0	82	42.8	0	0	---	0.00	30.011 
06:25	47.9	47.9	47.9	82	42.7	0	0	---	0.00	30.011 
06:30	47.7	47.7	47.7	82	42.5	0	0	---	0.00	30.012 
06:35	47.6	47.6	47.6	83	42.7	0	0	---	0.00	30.012 
06:40	47.4	47.4	47.4	83	42.5	0	0	---	0.00	30.012 
06:45	47.4	47.4	47.4	83	42.5	0	0	---	0.00	30.014 
06:50	47.4	47.4	47.4	83	42.5	0	0	---	0.00	30.014 
06:55	47.4	47.4	47.4	83	42.5	0	0	---	0.00	30.014 
07:00	47.6	47.6	47.6	83	42.7	0	0	---	0.00	30.020 
07:05	47.6	47.6	47.6	84	43.0	0	0	---	0.00	30.020 
07:10	47.9	47.9	47.9	84	43.3	0	0	---	0.00	30.020 
07:15	48.0	48.0	48.0	84	43.4	0	0	---	0.00	30.027 
07:20	48.5	48.5	48.5	84	43.9	0	0	---	0.00	30.027 
07:25	48.8	48.8	48.8	83	43.9	0	0	---	0.00	30.027 
07:30	49.2	49.2	49.2	83	44.3	0	0	---	0.00	30.035 
07:35	49.8	49.8	49.8	82	44.5	0	0	---	0.00	30.035 
07:40	50.5	50.5	50.5	81	44.9	0	0	---	0.00	30.035 
07:45	51.1	51.1	51.1	80	45.1	0	0	---	0.00	30.035 
07:50	51.9	51.9	51.9	79	45.6	0	0	---	0.00	30.035 
07:55	52.9	52.9	52.9	77	45.9	0	0	---	0.00	30.035 
08:00	54.2	54.2	54.2	75	46.4	0	0	---	0.00	30.035 
08:05	55.6	55.6	55.6	72	46.7	0	0	---	0.00	30.035 
08:10	56.7	56.7	56.7	69	46.6	0	0	---	0.00	30.035 
08:15	57.8	57.8	57.8	64	45.7	0	1	270	0.00	30.041 
08:20	58.9	58.9	58.9	62	45.9	0	1	270	0.00	30.041 
08:25	59.8	59.8	59.8	59	45.4	0	0	---	0.00	30.041 
08:30	60.5	60.5	60.5	58	45.6	0	1	270	0.00	30.044 
08:35	61.2	61.2	61.2	55	44.9	0	1	270	0.00	30.044 
08:40	61.8	61.8	61.8	55	45.5	0	1	270	0.00	30.044 
08:45	62.3	62.3	62.3	53	44.9	0	2	270	0.00	30.042 
08:50	62.9	62.9	62.9	53	45.5	0	1	270	0.00	30.042 
08:55	63.5	63.5	63.5	51	45.0	0	2	270	0.00	30.042 
09:00	64.0	64.0	64.0	51	45.5	0	1	270	0.00	30.042 
09:05	64.5	64.5	64.5	49	44.9	0	2	270	0.00	30.042 
09:10	64.8	64.8	64.8	48	44.6	0	2	270	0.00	30.042 
09:15	64.8	64.8	64.8	47	44.1	1	2	270	0.00	30.049 
09:20	65.2	65.2	65.2	46	43.9	0	3	270	0.00	30.049 
09:25	65.5	65.5	65.5	49	45.8	0	3	270	0.00	30.049 
09:30	66.0	66.0	66.0	47	45.2	0	2	270	0.00	30.044 
09:35	66.6	66.6	66.6	46	45.2	0	1	270	0.00	30.044 
09:40	67.3	67.3	67.3	46	45.8	0	2	270	0.00	30.044 
09:45	68.4	68.4	68.4	44	45.6	0	1	270	0.00	30.035 
09:50	69.1	69.1	69.1	44	46.3	0	1	270	0.00	30.035 
09:55	69.3	69.3	69.3	43	45.8	0	3	270	0.00	30.035 
10:00	69.4	69.4	69.4	45	47.1	0	2	270	0.00	30.032 
10:05	69.8	69.8	69.8	47	48.6	0	2	270	0.00	30.032 
10:10	70.3	70.3	70.3	42	46.1	0	3	270	0.00	30.032 
10:15	70.6	70.6	70.6	44	47.6	1	3	270	0.00	30.033 
10:20	70.6	70.6	70.6	40	45.1	1	4	270	0.00	30.033 
10:25	70.4	70.4	70.4	42	46.2	1	4	248	0.00	30.033 
10:30	70.6	70.6	70.6	44	47.6	0	2	248	0.00	30.032 
10:35	71.1	71.1	71.1	43	47.5	0	4	248	0.00	30.032 
10:40	71.6	71.6	71.6	41	46.6	0	4	90	0.00	30.032 
10:45	72.0	72.0	72.0	43	48.3	0	1	90	0.00	30.031 
10:50	72.3	72.3	72.3	41	47.3	1	2	90	0.00	30.031 
10:55	72.7	72.7	72.7	41	47.6	1	5	90	0.00	30.031 
11:00	72.8	72.8	72.8	41	47.7	1	4	90	0.00	30.029 
11:05	73.2	73.2	73.2	41	48.1	0	2	90	0.00	30.029 
11:10	73.5	73.5	73.5	41	48.3	0	3	90	0.00	30.029 
11:15	73.9	73.9	73.9	41	48.7	0	1	90	0.00	30.031 
11:20	73.9	73.9	73.9	38	46.7	1	3	90	0.00	30.031 
11:25	73.9	73.9	73.9	38	46.7	1	5	292	0.00	30.031 
11:30	73.7	73.7	73.7	36	45.1	1	4	90	0.00	30.033 
11:35	73.7	73.7	73.7	38	46.5	1	4	270	0.00	30.033 
11:40	73.7	73.7	73.7	34	43.6	1	4	270	0.00	30.033 
11:45	73.5	73.5	73.5	37	45.6	1	4	248	0.00	30.033 
11:50	73.9	73.9	73.9	39	47.4	1	6	248	0.00	30.033 
11:55	74.2	74.2	74.2	37	46.2	1	5	270	0.00	30.033 
12:00	74.2	74.2	74.2	35	44.8	2	5	248	0.00	30.033 
12:05	74.2	74.2	74.2	36	45.5	1	2	270	0.00	30.033 
12:10	74.4	74.4	74.4	35	44.9	1	4	248	0.00	30.033 
12:15	74.7	74.7	74.7	39	48.1	1	3	270	0.00	30.033 
12:20	74.9	74.9	74.9	34	44.6	1	5	248	0.00	30.033 
12:25	75.1	75.1	77.2	34	44.8	1	3	248	0.00	30.033 
12:30	75.3	75.3	77.4	35	45.7	1	4	248	0.00	30.031 
12:35	75.6	75.6	77.6	37	47.5	0	3	248	0.00	30.031 
12:40	75.8	75.8	77.3	32	43.8	1	4	248	0.00	30.031 
12:45	75.8	75.8	77.5	35	46.2	1	2	248	0.00	30.030 
12:50	75.8	75.8	77.5	35	46.2	1	5	270	0.00	30.030 
12:55	75.8	75.8	77.4	33	44.6	2	4	270	0.00	30.030 
13:00	75.6	75.6	77.3	32	43.6	1	5	270	0.00	30.028 
13:05	75.6	75.6	77.4	35	46.0	2	5	270	0.00	30.028 
13:10	76.1	76.1	77.5	33	44.9	1	4	202	0.00	30.028 
13:15	76.5	76.5	77.8	36	47.5	1	3	202	0.00	30.018 
13:20	76.8	76.8	78.0	38	49.2	0	2	158	0.00	30.018 
13:25	77.0	77.0	77.9	34	46.5	1	4	270	0.00	30.018 
13:30	76.8	76.8	77.9	35	47.1	1	4	248	0.00	30.014 
13:35	77.0	77.0	77.9	34	46.5	1	5	248	0.00	30.014 
13:40	77.0	77.0	77.9	33	45.7	1	3	248	0.00	30.014 
13:45	77.0	77.0	77.9	34	46.5	1	5	248	0.00	30.012 
13:50	77.0	77.0	77.8	32	44.9	1	4	248	0.00	30.012 
13:55	77.2	77.2	78.0	34	46.6	1	6	90	0.00	30.012 
14:00	77.2	77.2	77.9	33	45.8	1	3	270	0.00	30.012 
14:05	77.4	77.4	77.9	31	44.4	1	5	248	0.00	30.012 
14:10	77.2	77.2	77.9	32	45.0	1	3	270	0.00	30.012 
14:15	77.0	77.0	77.8	32	44.9	2	5	248	0.00	30.012 
14:20	77.2	77.2	78.1	35	47.4	1	3	248	0.00	30.012 
14:25	77.4	77.4	77.8	30	43.5	2	4	270	0.00	30.012 
14:30	77.4	77.4	78.1	35	47.6	1	5	248	0.00	30.012 
14:35	77.4	77.4	78.0	32	45.2	2	6	248	0.00	30.012 
14:40	77.4	77.4	77.9	31	44.4	1	5	68	0.00	30.012 
14:45	77.4	77.4	78.1	34	46.8	2	6	248	0.00	30.012 
14:50	77.4	77.4	78.0	32	45.2	1	5	248	0.00	30.012 
14:55	77.7	77.7	78.3	35	47.8	1	3	248	0.00	30.012 
15:00	77.7	77.7	78.3	36	48.6	1	4	248	0.00	30.008 
15:05	78.1	78.1	78.2	31	45.0	1	3	248	0.00	30.008 
15:10	78.3	78.3	78.4	32	46.0	0	2	248	0.00	30.008 
15:15	78.1	78.1	78.4	33	46.6	2	6	112	0.00	29.999 
15:20	78.1	78.1	78.2	31	45.0	1	4	248	0.00	29.999 
15:25	78.1	78.1	78.3	32	45.8	1	4	248	0.00	29.999 
15:30	78.3	78.3	78.2	29	43.4	1	3	248	0.00	30.001 
15:35	78.3	78.3	78.3	31	45.2	1	4	248	0.00	30.001 
15:40	78.3	78.3	78.6	35	48.4	1	6	270	0.00	30.001 
15:45	78.5	78.5	78.5	32	46.2	1	2	270	0.00	29.996 
15:50	78.6	78.6	78.7	34	47.9	1	3	270	0.00	29.996 
15:55	78.3	78.3	78.4	32	46.0	1	6	90	0.00	29.996 
16:00	78.1	78.1	78.2	31	45.0	1	5	112	0.00	29.990 
16:05	77.9	77.9	78.2	32	45.6	1	4	248	0.00	29.990 
16:10	78.3	78.3	78.5	34	47.6	1	3	112	0.00	29.990 
16:15	78.3	78.3	78.5	34	47.6	1	5	90	0.00	29.987 
16:20	78.1	78.1	78.4	33	46.6	1	4	90	0.00	29.987 
16:25	77.9	77.9	78.3	33	46.5	1	6	90	0.00	29.987 
16:30	78.1	78.1	78.4	34	47.4	1	4	90	0.00	29.986 
16:35	78.3	78.3	78.3	31	45.2	1	4	90	0.00	29.986 
16:40	78.3	78.3	78.2	29	43.4	1	3	270	0.00	29.986 
16:45	77.9	77.9	77.9	28	42.1	2	6	270	0.00	29.985 
16:50	77.4	77.4	77.9	31	44.4	0	2	248	0.00	29.985 
16:55	77.4	77.4	77.9	31	44.4	0	2	248	0.00	29.985 
17:00	77.4	77.4	77.8	30	43.5	1	3	248	0.00	29.984 
17:05	77.4	77.4	78.0	33	46.0	0	2	248	0.00	29.984 
17:10	77.9	77.9	78.3	33	46.5	0	2	248	0.00	29.984 
17:15	78.3	78.3	78.3	30	44.3	1	6	248	0.00	29.983 
17:20	78.3	78.3	78.5	33	46.8	0	3	112	0.00	29.983 
17:25	78.1	78.1	78.2	31	45.0	0	3	270	0.00	29.983 
17:30	77.9	77.9	78.0	29	43.1	1	5	270	0.00	29.985 
17:35	77.7	77.7	78.0	31	44.6	1	3	270	0.00	29.985 
17:40	77.4	77.4	77.8	30	43.5	1	3	270	0.00	29.985 
17:45	77.2	77.2	78.0	34	46.6	0	4	112	0.00	29.984 
17:50	77.2	77.2	77.9	32	45.0	0	2	112	0.00	29.984 
17:55	77.4	77.4	78.0	33	46.0	1	7	225	0.00	29.984 
18:00	77.2	77.2	77.9	33	45.8	1	4	135	0.00	29.983 
18:05	77.4	77.4	78.0	33	46.0	1	3	270	0.00	29.983 
18:10	77.6	77.6	78.1	33	46.2	0	2	270	0.00	29.983 
18:15	77.7	77.7	78.0	31	44.6	1	3	248	0.00	29.984 
18:20	77.6	77.6	78.0	31	44.5	1	3	248	0.00	29.984 
18:25	77.4	77.4	78.1	34	46.8	0	2	248	0.00	29.984 
18:30	77.0	77.0	77.9	33	45.7	1	3	248	0.00	29.987 
18:35	76.7	76.7	77.7	32	44.6	0	2	248	0.00	29.987 
18:40	76.7	76.7	77.7	32	44.6	0	2	248	0.00	29.987 
18:45	76.5	76.5	77.6	32	44.4	0	1	248	0.00	29.985 
18:50	76.5	76.5	77.6	32	44.4	0	1	248	0.00	29.985 
18:55	76.5	76.5	77.6	32	44.4	0	2	248	0.00	29.985 
19:00	76.5	76.5	77.7	33	45.2	0	2	270	0.00	29.984 
19:05	76.3	76.3	77.7	35	46.6	0	2	270	0.00	29.984 
19:10	76.0	76.0	77.6	35	46.4	0	1	270	0.00	29.984 
19:15	75.8	75.8	77.5	34	45.4	1	3	292	0.00	29.981 
19:20	75.6	75.6	77.4	34	45.2	1	2	270	0.00	29.981 
19:25	75.3	75.3	77.3	34	45.0	0	1	270	0.00	29.981 
19:30	75.1	75.1	77.2	34	44.8	0	2	270	0.00	29.984 
19:35	74.9	74.9	74.9	34	44.6	0	1	270	0.00	29.984 
19:40	74.7	74.7	74.7	35	45.2	0	1	270	0.00	29.984 
19:45	74.6	74.6	74.6	34	44.4	0	2	270	0.00	29.990 
19:50	74.4	74.4	74.4	35	44.9	0	1	270	0.00	29.990 
19:55	73.9	73.9	73.9	36	45.2	0	1	270	0.00	29.990 
20:00	73.5	73.5	73.5	36	44.9	0	1	270	0.00	29.993 
20:05	73.0	73.0	73.0	38	45.9	0	1	270	0.00	29.993 
20:10	72.7	72.7	72.7	39	46.3	0	0	---	0.00	29.993 
20:15	72.1	72.1	72.1	39	45.8	0	0	---	0.00	29.987 
20:20	71.8	71.8	71.8	39	45.5	0	0	---	0.00	29.987 
20:25	71.5	71.5	71.5	40	45.9	0	0	---	0.00	29.987 
20:30	71.1	71.1	71.1	40	45.5	0	0	---	0.00	29.985 
20:35	70.9	70.9	70.9	41	46.0	0	0	---	0.00	29.985 
20:40	70.6	70.6	70.6	42	46.4	0	0	---	0.00	29.985 
20:45	70.3	70.3	70.3	43	46.7	0	0	---	0.00	29.990 
20:50	69.9	69.9	69.9	43	46.4	0	0	---	0.00	29.990 
20:55	69.6	69.6	69.6	43	46.1	0	1	270	0.00	29.990 
21:00	69.6	69.6	69.6	45	47.3	0	0	---	0.00	29.991 
21:05	69.4	69.4	69.4	44	46.5	0	0	---	0.00	29.991 
21:10	69.3	69.3	69.3	45	47.0	0	0	---	0.00	29.991 
21:15	69.3	69.3	69.3	45	47.0	0	1	270	0.00	29.989 
21:20	69.3	69.3	69.3	45	47.0	0	1	270	0.00	29.989 
21:25	69.3	69.3	69.3	45	47.0	0	1	270	0.00	29.989 
21:30	69.4	69.4	69.4	45	47.1	0	1	270	0.00	29.990 
21:35	69.4	69.4	69.4	46	47.7	0	0	---	0.00	29.990 
21:40	69.3	69.3	69.3	46	47.6	0	1	270	0.00	29.990 
21:45	69.3	69.3	69.3	46	47.6	0	1	270	0.00	29.991 
21:50	69.1	69.1	69.1	46	47.4	0	1	270	0.00	29.991 
21:55	69.3	69.3	69.3	46	47.6	0	1	270	0.00	29.991 
22:00	69.3	69.3	69.3	46	47.6	0	0	---	0.00	29.992 
22:05	69.1	69.1	69.1	46	47.4	0	1	270	0.00	29.992 
22:10	69.1	69.1	69.1	47	48.0	0	0	---	0.00	29.992 
22:15	68.9	68.9	68.9	47	47.8	0	0	---	0.00	29.992 
22:20	68.6	68.6	68.6	48	48.1	0	0	---	0.00	29.992 
22:25	68.3	68.3	68.3	48	47.8	0	0	---	0.00	29.992 
22:30	68.1	68.1	68.1	48	47.7	0	1	270	0.00	29.997 
22:35	67.9	67.9	67.9	48	47.5	0	0	---	0.00	29.997 
22:40	67.8	67.8	67.8	49	47.9	0	1	270	0.00	29.997 
22:45	67.4	67.4	67.4	49	47.6	0	0	---	0.00	29.992 
22:50	67.3	67.3	67.3	50	48.0	0	1	270	0.00	29.992 
22:55	67.1	67.1	67.1	50	47.8	0	0	---	0.00	29.992 
23:00	66.9	66.9	66.9	50	47.6	0	0	---	0.00	29.988 
23:05	66.8	66.8	66.8	51	48.1	0	0	---	0.00	29.988 
23:10	66.4	66.4	66.4	51	47.7	0	0	---	0.00	29.988 
23:15	66.3	66.3	66.3	51	47.6	0	0	---	0.00	29.986 
23:20	66.1	66.1	66.1	52	48.0	0	1	270	0.00	29.986 
23:25	66.0	66.0	66.0	52	47.9	0	0	---	0.00	29.986 
23:30	65.8	65.8	65.8	52	47.7	0	1	270	0.00	29.976 
23:35	65.6	65.6	65.6	52	47.5	0	1	270	0.00	29.976 
23:40	65.6	65.6	65.6	53	48.0	0	1	270	0.00	29.976 
23:45	65.6	65.6	65.6	52	47.5	0	1	270	0.00	29.973 
23:50	65.6	65.6	65.6	53	48.0	0	0	---	0.00	29.973 
23:55	65.5	65.5	65.5	53	47.9	0	0	---	0.00	29.973 

CoCoRaHS
IN-AL-39
A2 Web Hosting
Creative Commons License
GoDaddy
search engine by freefind advanced

loaded 2018-11-22 05:36:57 • last modified 2010-11-18 10:43:29
Privacy PolicyDisclaimer
• wx.awcolley.com is powered by PmWiki v.2002016 •
• all content (unless otherwise noted) © 2018 A W Colley